Mansehra Weather



Mansehra's Current Weather

Temprature 13.2o scattered clouds

scattered clouds

Rain: 0 %

Min Temprature13.2o
Max Temprature13.2o
Humidity37
Wind Speed2.91 m/h
Sun Rise05:43:19
Sun Set18:33:43
Current Time: 09-Apr-2020 02:07:13
Lat/Lon: 34.33, 73.2




Mansehra's Geo Location



Mansehra's Weather Forecast

Time Overall Temp Min Temp Max Temp Humidity Wind Speed Rain
09-Apr-2020 (Thu)
05:00:00 scattered clouds 12.610 12.610 12.610 34 2.65 m/h 0 %
08:00:00 broken clouds 17.090 17.090 17.090 35 1.61 m/h 0 %
11:00:00 overcast clouds 21.420 21.420 21.420 26 1.37 m/h 0 %
14:00:00 overcast clouds 22.170 22.170 22.170 25 2.71 m/h 0 %
17:00:00 light rain 20.840 20.840 20.840 35 1.78 m/h 12 %
20:00:00 moderate rain 13.830 13.830 13.830 57 1.44 m/h 835 %
23:00:00 moderate rain 12.180 12.180 12.180 56 3.4 m/h 424 %
10-Apr-2020 (Fri)
02:00:00 light rain 11.680 11.680 11.680 52 2.97 m/h 128 %
05:00:00 light rain 11.670 11.670 11.670 49 3.01 m/h 18 %
08:00:00 few clouds 16.870 16.870 16.870 42 2.18 m/h 0 %
11:00:00 clear sky 22.120 22.120 22.120 31 0.31 m/h 0 %
14:00:00 clear sky 23.770 23.770 23.770 25 1.36 m/h 0 %
17:00:00 clear sky 22.920 22.920 22.920 30 0.97 m/h 0 %
20:00:00 clear sky 16.680 16.680 16.680 37 2.04 m/h 0 %
23:00:00 clear sky 15.520 15.520 15.520 33 2.92 m/h 0 %
11-Apr-2020 (Sat)
02:00:00 broken clouds 15.080 15.080 15.080 32 3.13 m/h 0 %
05:00:00 broken clouds 14.610 14.610 14.610 31 3.38 m/h 0 %
08:00:00 overcast clouds 19.110 19.110 19.110 34 2.5 m/h 0 %
11:00:00 overcast clouds 24.400 24.400 24.400 24 0.86 m/h 0 %
14:00:00 broken clouds 26.140 26.140 26.140 21 0.78 m/h 0 %
17:00:00 broken clouds 24.410 24.410 24.410 32 1.45 m/h 0 %
20:00:00 broken clouds 18.370 18.370 18.370 36 1.65 m/h 0 %
23:00:00 overcast clouds 17.420 17.420 17.420 31 2.7 m/h 0 %
12-Apr-2020 (Sun)
02:00:00 overcast clouds 16.560 16.560 16.560 30 2.82 m/h 0 %
05:00:00 broken clouds 15.830 15.830 15.830 28 3.13 m/h 0 %
08:00:00 few clouds 20.930 20.930 20.930 31 2.15 m/h 0 %
11:00:00 few clouds 26.110 26.110 26.110 22 1.04 m/h 0 %
14:00:00 scattered clouds 27.650 27.650 27.650 20 1.75 m/h 0 %
17:00:00 scattered clouds 26.200 26.200 26.200 30 1.4 m/h 0 %
20:00:00 broken clouds 19.930 19.930 19.930 35 1.66 m/h 0 %
23:00:00 broken clouds 18.740 18.740 18.740 32 2.52 m/h 0 %
13-Apr-2020 (Mon)
02:00:00 broken clouds 18.190 18.190 18.190 30 2.79 m/h 0 %
05:00:00 overcast clouds 17.580 17.580 17.580 29 2.77 m/h 0 %
08:00:00 overcast clouds 22.250 22.250 22.250 33 2.03 m/h 0 %
11:00:00 overcast clouds 27.180 27.180 27.180 23 0.86 m/h 0 %
14:00:00 broken clouds 28.550 28.550 28.550 20 2.11 m/h 0 %
17:00:00 scattered clouds 27.070 27.070 27.070 29 1.51 m/h 0 %
20:00:00 light rain 20.570 20.570 20.570 34 1.7 m/h 13 %
23:00:00 broken clouds 19.380 19.380 19.380 34 2.71 m/h 0 %
14-Apr-2020 (Tue)
02:00:00 overcast clouds 19.060 19.060 19.060 33 2.53 m/h 0 %

Famous Cities (61)